Island Explorer — WDG7285 — position and weather

sailwx.info

Track history (hours):
 
Tides and Currents Weather Stations Pressure Air Temp Water Temp Dewpoint Dewpoint Depression Visibility Wind Speed Wind Dir Waves Ship Positions

Island Explorer

Owner: Island Packers, Inc., Ventura, CA. More information available from US FCC via Universal Licensing System and Coast Guard Vessel Documentation Center.

Last reported at 2017-Sep-22 01:59 UTC. Time now 2017-Sep-23 16:32 UTC.
Position N 34°15' W 119°16'.

Length 22 m.

Type: Passenger vessel. MMSI: 367565750.

Date/timePositionNaut miles runAvg speedWind from/ knotsBaromVisibWave heightAir tempDewpointWater temp
2017-Sep-22 01:59N 34°15' W 119°16'0 0.0
2017-Sep-22 01:30N 34°15' W 119°16'0 0.0
2017-Sep-22 01:00N 34°15' W 119°16'0 0.0
2017-Sep-22 00:30N 34°15' W 119°16'1 1.3
2017-Sep-22 00:00N 34°15' W 119°17'916.9
2017-Sep-21 23:29N 34°08' W 119°24'917.7
2017-Sep-21 23:00N 34°03' W 119°33'1 1.4
2017-Sep-21 22:30N 34°03' W 119°33'0 0.1
2017-Sep-21 22:00N 34°03' W 119°33'0 0.9
2017-Sep-21 21:29N 34°03' W 119°34'713.5
2017-Sep-21 21:00N 34°01' W 119°41'0 0.0
2017-Sep-21 20:30N 34°01' W 119°41'0 0.0
2017-Sep-21 20:01N 34°01' W 119°41'0 0.0
2017-Sep-21 19:30N 34°01' W 119°41'1 2.7
2017-Sep-21 19:00N 34°02' W 119°40'510.8
2017-Sep-21 18:30N 34°03' W 119°33'0 0.3
2017-Sep-21 18:00N 34°03' W 119°33'1 2.6
2017-Sep-21 17:30N 34°04' W 119°32'713.8
2017-Sep-21 16:59N 34°09' W 119°26'714.0
2017-Sep-21 16:30N 34°13' W 119°19'3 6.6
2017-Sep-21 16:00N 34°15' W 119°16'0 0.0
2017-Sep-21 15:31N 34°15' W 119°16'0 0.1
2017-Sep-21 15:00N 34°15' W 119°16'0 0.0
2017-Sep-21 14:31N 34°15' W 119°16'0 0.0
2017-Sep-21 14:00N 34°15' W 119°16'0 0.0
2017-Sep-21 13:29N 34°15' W 119°16'0 0.0
2017-Sep-21 13:00N 34°15' W 119°16'0 0.0
2017-Sep-21 12:30N 34°15' W 119°16'0 0.0
2017-Sep-21 12:00N 34°15' W 119°16'0 0.0
2017-Sep-21 11:31N 34°15' W 119°16'0 0.0
2017-Sep-21 11:01N 34°15' W 119°16'0 0.0
2017-Sep-21 10:30N 34°15' W 119°16'0 0.0
2017-Sep-21 10:01N 34°15' W 119°16'0 0.0
2017-Sep-21 09:31N 34°15' W 119°16'0 0.0
2017-Sep-21 09:00N 34°15' W 119°16'0 0.0
2017-Sep-21 08:30N 34°15' W 119°16'0 0.0
2017-Sep-21 07:59N 34°15' W 119°16'0 0.0
2017-Sep-21 07:29N 34°15' W 119°16'0 0.0
2017-Sep-21 06:57N 34°15' W 119°16'0 0.0
2017-Sep-21 06:30N 34°15' W 119°16'0 0.0
2017-Sep-21 06:00N 34°15' W 119°16'0 0.0
2017-Sep-21 05:30N 34°15' W 119°16'0 0.0
2017-Sep-21 04:59N 34°15' W 119°16'0 0.0
2017-Sep-21 04:29N 34°15' W 119°16'0 0.0
2017-Sep-21 04:00N 34°15' W 119°16'0 0.0
2017-Sep-21 03:31N 34°15' W 119°16'0 0.0
2017-Sep-21 03:00N 34°15' W 119°16'0 0.0
2017-Sep-21 02:30N 34°15' W 119°16'0 0.0
2017-Sep-21 01:59N 34°15' W 119°16'0 0.0
2017-Sep-21 01:29N 34°15' W 119°16'0 0.0
2017-Sep-21 00:58N 34°15' W 119°16'0 0.0
2017-Sep-21 00:31N 34°15' W 119°16'0 0.0
2017-Sep-21 00:00N 34°15' W 119°16'0 0.0
2017-Sep-20 23:30N 34°15' W 119°16'0 0.4
2017-Sep-20 23:01N 34°14' W 119°16'0 0.4
2017-Sep-20 22:30N 34°15' W 119°16'0 0.0
2017-Sep-20 22:00N 34°15' W 119°16'0 0.0
2017-Sep-20 21:31N 34°15' W 119°16'0 0.0
2017-Sep-20 21:01N 34°15' W 119°16'0 0.0
2017-Sep-20 20:30N 34°15' W 119°16'0 0.0
2017-Sep-20 20:00N 34°15' W 119°16'0 0.0
2017-Sep-20 19:31N 34°15' W 119°16'0 0.0
2017-Sep-20 19:00N 34°15' W 119°16'0 0.0
2017-Sep-20 18:30N 34°15' W 119°16'0 0.0
2017-Sep-20 18:00N 34°15' W 119°16'0 0.0
2017-Sep-20 17:30N 34°15' W 119°16'0 0.0
2017-Sep-20 17:00N 34°15' W 119°16'0 0.0
2017-Sep-20 16:27N 34°15' W 119°16'0 0.0
2017-Sep-20 15:58N 34°15' W 119°16'0 0.0
2017-Sep-20 15:31N 34°15' W 119°16'0 0.0
2017-Sep-20 14:59N 34°15' W 119°16'0 0.0
2017-Sep-20 14:00N 34°15' W 119°16'0 0.0
2017-Sep-20 13:30N 34°15' W 119°16'0 0.0
2017-Sep-20 13:00N 34°15' W 119°16'0 0.0
2017-Sep-20 12:30N 34°15' W 119°16'0 0.0
2017-Sep-20 12:01N 34°15' W 119°16'0 0.0
2017-Sep-20 11:31N 34°15' W 119°16'0 0.0
2017-Sep-20 11:00N 34°15' W 119°16'0 0.0
2017-Sep-20 10:30N 34°15' W 119°16'0 0.0
2017-Sep-20 09:59N 34°15' W 119°16'0 0.0
2017-Sep-20 09:30N 34°15' W 119°16'0 0.0
2017-Sep-20 08:58N 34°15' W 119°16'0 0.0
2017-Sep-20 08:28N 34°15' W 119°16'0 0.0
2017-Sep-20 08:00N 34°15' W 119°16'0 0.0
2017-Sep-20 07:29N 34°15' W 119°16'0 0.0
2017-Sep-20 07:01N 34°15' W 119°16'0 0.0
2017-Sep-20 06:28N 34°15' W 119°16'0 0.0
2017-Sep-20 06:01N 34°15' W 119°16'0 0.0
2017-Sep-20 05:25N 34°15' W 119°16'0 0.0
2017-Sep-20 04:59N 34°15' W 119°16'0 0.0
2017-Sep-20 04:31N 34°15' W 119°16'0 0.0
2017-Sep-20 03:51N 34°15' W 119°16'0 0.0
2017-Sep-20 03:30N 34°15' W 119°16'0 0.0
2017-Sep-20 03:00N 34°15' W 119°16'0 0.0
2017-Sep-20 02:30N 34°15' W 119°16'0 0.0
2017-Sep-20 02:01N 34°15' W 119°16'0 0.0
2017-Sep-20 01:31N 34°15' W 119°16'0 0.0
2017-Sep-20 01:00N 34°15' W 119°16'0 0.0
2017-Sep-20 00:30N 34°15' W 119°16'0 0.0
2017-Sep-20 00:01N 34°15' W 119°16'0 0.0
2017-Sep-19 23:31N 34°15' W 119°16'0 0.0
2017-Sep-19 23:00N 34°15' W 119°16'0 0.0
2017-Sep-19 22:31N 34°15' W 119°16'0 0.0
2017-Sep-19 22:01N 34°15' W 119°16'0 0.0
2017-Sep-19 21:31N 34°15' W 119°16'0 0.0
2017-Sep-19 21:00N 34°15' W 119°16'0 0.0
2017-Sep-19 20:31N 34°15' W 119°16'0 0.0
2017-Sep-19 20:01N 34°15' W 119°16'0 0.0
2017-Sep-19 19:31N 34°15' W 119°16'0 0.0
2017-Sep-19 19:00N 34°15' W 119°16'0 0.0
2017-Sep-19 18:30N 34°15' W 119°16'0 0.0
2017-Sep-19 18:00N 34°15' W 119°16'0 0.0
2017-Sep-19 17:29N 34°15' W 119°16'0 0.0
2017-Sep-19 17:00N 34°15' W 119°16'0 0.0
2017-Sep-19 16:30N 34°15' W 119°16'0 0.0
2017-Sep-19 16:00N 34°15' W 119°16'0 0.0
2017-Sep-19 15:31N 34°15' W 119°16'0 0.0
2017-Sep-19 15:01N 34°15' W 119°16'0 0.0
2017-Sep-19 14:30N 34°15' W 119°16'0 0.0
2017-Sep-19 14:01N 34°15' W 119°16'0 0.0
2017-Sep-19 13:31N 34°15' W 119°16'0 0.0
2017-Sep-19 13:00N 34°15' W 119°16'0 0.0
2017-Sep-19 12:31N 34°15' W 119°16'0 0.0
2017-Sep-19 12:00N 34°15' W 119°16'0 0.0
2017-Sep-19 11:31N 34°15' W 119°16'0 0.0
2017-Sep-19 11:01N 34°15' W 119°16'0 0.0
2017-Sep-19 10:30N 34°15' W 119°16'0 0.0
2017-Sep-19 10:00N 34°15' W 119°16'0 0.0
2017-Sep-19 09:31N 34°15' W 119°16'0 0.0
2017-Sep-19 09:00N 34°15' W 119°16'0 0.0
2017-Sep-19 08:31N 34°15' W 119°16'0 0.0
2017-Sep-19 08:01N 34°15' W 119°16'0 0.0
2017-Sep-19 07:31N 34°15' W 119°16'0 0.0
2017-Sep-19 07:00N 34°15' W 119°16'0 0.0
2017-Sep-19 06:30N 34°15' W 119°16'0 0.0
2017-Sep-19 06:00N 34°15' W 119°16'0 0.0
2017-Sep-19 05:30N 34°15' W 119°16'0 0.0
2017-Sep-19 04:59N 34°15' W 119°16'0 0.0
2017-Sep-19 04:24N 34°15' W 119°16'0 0.0
2017-Sep-19 04:00N 34°15' W 119°16'0 0.0
2017-Sep-19 03:30N 34°15' W 119°16'0 0.0
2017-Sep-19 02:57N 34°15' W 119°16'0 0.0
2017-Sep-19 02:30N 34°15' W 119°16'0 0.0
2017-Sep-19 02:00N 34°15' W 119°16'0 0.0
2017-Sep-19 01:30N 34°15' W 119°16'0 0.0
2017-Sep-19 01:00N 34°15' W 119°16'0 0.0
2017-Sep-19 00:30N 34°15' W 119°16'0 0.0
2017-Sep-19 00:01N 34°15' W 119°16'0 0.0
2017-Sep-18 23:30N 34°15' W 119°16'0 0.0
2017-Sep-18 23:01N 34°15' W 119°16'0 0.0
2017-Sep-18 22:30N 34°15' W 119°16'0 0.0
2017-Sep-18 22:01N 34°15' W 119°16'0 0.0
2017-Sep-18 21:31N 34°15' W 119°16'0 0.0
2017-Sep-18 21:01N 34°15' W 119°16'0 0.0
2017-Sep-18 20:30N 34°15' W 119°16'0 0.0
2017-Sep-18 20:00N 34°15' W 119°16'0 0.0
2017-Sep-18 19:27N 34°15' W 119°16'0 0.0
2017-Sep-18 19:01N 34°15' W 119°16'0 0.0
2017-Sep-18 18:30N 34°15' W 119°16'0 0.0
2017-Sep-18 18:00N 34°15' W 119°16'0 0.0
2017-Sep-18 17:31N 34°15' W 119°16'0 0.0
2017-Sep-18 17:00N 34°15' W 119°16'0 0.0
2017-Sep-18 16:31N 34°15' W 119°16'0 0.0
2017-Sep-18 16:00N 34°15' W 119°16'0 0.0
2017-Sep-18 15:30N 34°15' W 119°16'0 0.0
2017-Sep-18 15:00N 34°15' W 119°16'0 0.0
2017-Sep-18 14:30N 34°15' W 119°16'0 0.0
2017-Sep-18 14:00N 34°15' W 119°16'0 0.0
2017-Sep-18 13:30N 34°15' W 119°16'0 0.0
2017-Sep-18 13:00N 34°15' W 119°16'0 0.0
2017-Sep-18 12:30N 34°15' W 119°16'0 0.0
2017-Sep-18 12:00N 34°15' W 119°16'0 0.0
2017-Sep-18 11:30N 34°15' W 119°16'0 0.0
2017-Sep-18 11:00N 34°15' W 119°16'0 0.0
2017-Sep-18 10:31N 34°15' W 119°16'0 0.0
2017-Sep-18 10:00N 34°15' W 119°16'0 0.0
2017-Sep-18 09:31N 34°15' W 119°16'0 0.0
2017-Sep-18 09:01N 34°15' W 119°16'0 0.0
2017-Sep-18 08:30N 34°15' W 119°16'0 0.0
2017-Sep-18 08:00N 34°15' W 119°16'0 0.0
2017-Sep-18 07:30N 34°15' W 119°16'0 0.0
2017-Sep-18 07:00N 34°15' W 119°16'0 0.0
2017-Sep-18 06:30N 34°15' W 119°16'0 0.0
2017-Sep-18 05:57N 34°15' W 119°16'0 0.0
2017-Sep-18 05:30N 34°15' W 119°16'0 0.0
2017-Sep-18 05:00N 34°15' W 119°16'0 0.0
2017-Sep-18 04:30N 34°15' W 119°16'0 0.0
2017-Sep-18 04:01N 34°15' W 119°16'0 0.0
2017-Sep-18 03:31N 34°15' W 119°16'0 0.0
2017-Sep-18 03:01N 34°15' W 119°16'0 0.0
2017-Sep-18 02:30N 34°15' W 119°16'0 0.0
2017-Sep-18 02:01N 34°15' W 119°16'0 0.0
2017-Sep-18 01:31N 34°15' W 119°16'0 0.6
2017-Sep-18 01:00N 34°15' W 119°16'816.9
2017-Sep-18 00:30N 34°10' W 119°24'918.6
2017-Sep-18 00:00N 34°05' W 119°34'713.8
2017-Sep-17 23:30N 34°01' W 119°41'3 6.1
2017-Sep-17 23:00N 34°03' W 119°44'713.3
2017-Sep-17 22:30N 34°04' W 119°52'612.1
2017-Sep-17 22:00N 34°02' W 119°58'4 7.9
2017-Sep-17 21:31N 34°00' W 120°03'0 0.1
2017-Sep-17 21:00N 34°01' W 120°03'1 1.5
2017-Sep-17 20:29N 33°60' W 120°02'0 0.5
2017-Sep-17 19:56N 34°00' W 120°02'0 0.8
2017-Sep-17 19:30N 34°01' W 120°02'1 1.3
2017-Sep-17 19:00N 34°00' W 120°02'0 0.5
2017-Sep-17 18:30N 34°00' W 120°02'0 0.6
2017-Sep-17 18:01N 34°00' W 120°03'2 4.7
2017-Sep-17 17:31N 34°02' W 120°00'1019.2
2017-Sep-17 17:01N 34°06' W 119°50'1019.5
2017-Sep-17 16:29N 34°09' W 119°38'5 9.3
2017-Sep-17 16:00N 34°09' W 119°33'918.3
2017-Sep-17 15:30N 34°12' W 119°23'612.2
2017-Sep-17 15:00N 34°15' W 119°16'0 0.1
2017-Sep-17 14:30N 34°15' W 119°16'0 0.1
2017-Sep-17 14:00N 34°15' W 119°16'0 0.1
2017-Sep-17 13:30N 34°15' W 119°16'0 0.0
2017-Sep-17 13:00N 34°15' W 119°16'0 0.0
2017-Sep-17 12:30N 34°15' W 119°16'0 0.0
2017-Sep-17 12:00N 34°15' W 119°16'0 0.0
2017-Sep-17 11:30N 34°15' W 119°16'0 0.0
2017-Sep-17 11:00N 34°15' W 119°16'0 0.0
2017-Sep-17 10:30N 34°15' W 119°16'0 0.0
2017-Sep-17 10:00N 34°15' W 119°16'0 0.0
2017-Sep-17 09:30N 34°15' W 119°16'0 0.0
2017-Sep-17 09:00N 34°15' W 119°16'0 0.0
2017-Sep-17 08:30N 34°15' W 119°16'0 0.0
2017-Sep-17 08:00N 34°15' W 119°16'0 0.0
2017-Sep-17 07:30N 34°15' W 119°16'0 0.0
2017-Sep-17 07:00N 34°15' W 119°16'0 0.0
2017-Sep-17 06:30N 34°15' W 119°16'0 0.0
2017-Sep-17 06:00N 34°15' W 119°16'0 0.0
2017-Sep-17 05:30N 34°15' W 119°16'0 0.0
2017-Sep-17 05:00N 34°15' W 119°16'0 0.0
2017-Sep-17 04:30N 34°15' W 119°16'0 0.0
2017-Sep-17 04:00N 34°15' W 119°16'1 1.1
2017-Sep-17 03:30N 34°15' W 119°16'1 1.4
2017-Sep-17 03:00N 34°15' W 119°16'1 1.4
2017-Sep-17 02:30N 34°15' W 119°16'1 1.1
2017-Sep-17 02:00N 34°15' W 119°16'0 0.1
2017-Sep-17 01:30N 34°15' W 119°16'0 0.0
2017-Sep-17 01:00N 34°15' W 119°16'0 0.1
2017-Sep-17 00:30N 34°15' W 119°16'0 0.1
2017-Sep-17 00:00N 34°15' W 119°16'0 0.0
2017-Sep-16 23:30N 34°15' W 119°16'2 3.1
2017-Sep-16 23:00N 34°14' W 119°18'918.3
2017-Sep-16 22:30N 34°11' W 119°28'612.4
2017-Sep-16 22:00N 34°09' W 119°35'2 3.1
2017-Sep-16 21:30N 34°10' W 119°35'1 1.3
2017-Sep-16 21:00N 34°09' W 119°35'714.7
2017-Sep-16 20:30N 34°07' W 119°27'610.9
2017-Sep-16 20:00N 34°02' W 119°30'918.2
2017-Sep-16 19:30N 33°54' W 119°25'612.4
2017-Sep-16 19:01N 33°56' W 119°18'714.5
2017-Sep-16 18:30N 34°03' W 119°22'4 8.8
2017-Sep-16 18:01N 34°04' W 119°17'714.3
2017-Sep-16 17:30N 34°11' W 119°20'5 7.3
2017-Sep-16 16:48N 34°15' W 119°16'0 0.5
2017-Sep-16 16:21N 34°14' W 119°16'0 0.6
2017-Sep-16 16:00N 34°15' W 119°16'0 0.0
2017-Sep-16 15:29N 34°15' W 119°16'0 0.0
2017-Sep-16 15:00N 34°15' W 119°16'0 0.0
2017-Sep-16 14:30N 34°15' W 119°16'0 0.0
2017-Sep-16 14:00N 34°15' W 119°16'0 0.0
2017-Sep-16 13:29N 34°15' W 119°16'0 0.0
2017-Sep-16 13:00N 34°15' W 119°16'0 0.0
2017-Sep-16 12:29N 34°15' W 119°16'0 0.0
2017-Sep-16 12:00N 34°15' W 119°16'0 0.0
2017-Sep-16 11:29N 34°15' W 119°16'0 0.0
2017-Sep-16 11:00N 34°15' W 119°16'0 0.0
2017-Sep-16 10:30N 34°15' W 119°16'0 0.0
2017-Sep-16 10:00N 34°15' W 119°16'0 0.0
2017-Sep-16 09:29N 34°15' W 119°16'0 0.0
2017-Sep-16 09:00N 34°15' W 119°16'0 0.0
2017-Sep-16 08:30N 34°15' W 119°16'0 0.0
2017-Sep-16 07:59N 34°15' W 119°16'0 0.0
2017-Sep-16 07:30N 34°15' W 119°16'0 0.0
2017-Sep-16 07:00N 34°15' W 119°16'0 0.0
2017-Sep-16 06:29N 34°15' W 119°16'0 0.0
2017-Sep-16 06:00N 34°15' W 119°16'0 0.0
2017-Sep-16 05:29N 34°15' W 119°16'0 0.0
2017-Sep-16 04:58N 34°15' W 119°16'0 0.0
2017-Sep-16 04:25N 34°15' W 119°16'0 0.0
2017-Sep-16 03:59N 34°15' W 119°16'0 0.0
2017-Sep-16 03:30N 34°15' W 119°16'0 0.0
2017-Sep-16 02:56N 34°15' W 119°16'0 0.0
2017-Sep-16 02:30N 34°15' W 119°16'0 0.0
2017-Sep-16 02:00N 34°15' W 119°16'0 0.0
2017-Sep-16 01:26N 34°15' W 119°16'0 0.0
2017-Sep-16 01:00N 34°15' W 119°16'0 0.7
2017-Sep-16 00:30N 34°15' W 119°16'918.2
2017-Sep-16 00:00N 34°10' W 119°25'918.7
2017-Sep-15 23:30N 34°03' W 119°33'0 0.1
2017-Sep-15 22:59N 34°03' W 119°33'817.7
2017-Sep-15 22:30N 34°04' W 119°43'713.5
2017-Sep-15 22:00N 34°04' W 119°52'918.1
2017-Sep-15 21:31N 34°02' W 120°02'1 1.1
2017-Sep-15 20:56N 34°01' W 120°02'1 1.7
2017-Sep-15 20:27N 34°00' W 120°02'1 2.3
2017-Sep-15 20:00N 33°59' W 120°01'1 1.4
2017-Sep-15 19:30N 33°60' W 120°02'1 1.2
2017-Sep-15 19:00N 34°00' W 120°02'0 0.9
2017-Sep-15 18:30N 34°00' W 120°03'510.0
2017-Sep-15 18:00N 33°59' W 119°57'1318.5
2017-Sep-15 17:19N 33°58' W 119°42'819.3
2017-Sep-15 16:55N 33°59' W 119°33'4 7.9
2017-Sep-15 16:28N 34°03' W 119°33'816.4
2017-Sep-15 15:59N 34°08' W 119°26'918.9
2017-Sep-15 15:30N 34°14' W 119°18'2 3.4
2017-Sep-15 14:59N 34°15' W 119°16'0 0.1
2017-Sep-15 14:30N 34°15' W 119°16'0 0.1
2017-Sep-15 14:00N 34°15' W 119°16'0 0.1
2017-Sep-15 13:30N 34°15' W 119°16'0 0.0
2017-Sep-15 13:00N 34°15' W 119°16'0 0.0
2017-Sep-15 12:29N 34°15' W 119°16'0 0.0
2017-Sep-15 12:00N 34°15' W 119°16'0 0.0
2017-Sep-15 11:30N 34°15' W 119°16'0 0.0
2017-Sep-15 11:00N 34°15' W 119°16'0 0.0
2017-Sep-15 10:30N 34°15' W 119°16'0 0.0
2017-Sep-15 10:00N 34°15' W 119°16'0 0.0
2017-Sep-15 09:30N 34°15' W 119°16'0 0.0
2017-Sep-15 09:00N 34°15' W 119°16'0 0.0
2017-Sep-15 08:29N 34°15' W 119°16'0 0.0
2017-Sep-15 08:00N 34°15' W 119°16'0 0.0
2017-Sep-15 07:30N 34°15' W 119°16'0 0.0
2017-Sep-15 07:00N 34°15' W 119°16'0 0.0
2017-Sep-15 06:30N 34°15' W 119°16'0 0.0
2017-Sep-15 06:00N 34°15' W 119°16'0 0.0
2017-Sep-15 05:30N 34°15' W 119°16'0 0.0
2017-Sep-15 05:00N 34°15' W 119°16'0 0.0
2017-Sep-15 04:30N 34°15' W 119°16'0 0.0
2017-Sep-15 04:00N 34°15' W 119°16'0 0.0
2017-Sep-15 03:30N 34°15' W 119°16'0 0.0
2017-Sep-15 03:00N 34°15' W 119°16'0 0.0
2017-Sep-15 02:30N 34°15' W 119°16'0 0.0
2017-Sep-15 02:01N 34°15' W 119°16'0 0.0
2017-Sep-15 01:29N 34°15' W 119°16'0 0.0
2017-Sep-15 01:00N 34°15' W 119°16'0 0.0
2017-Sep-15 00:30N 34°15' W 119°16'0 0.0
2017-Sep-14 23:59N 34°15' W 119°16'0 0.0
2017-Sep-14 23:28N 34°15' W 119°16'0 0.0
2017-Sep-14 23:01N 34°15' W 119°16'0 0.0
2017-Sep-14 22:18N 34°15' W 119°16'0 0.0
2017-Sep-14 21:57N 34°15' W 119°16'0 0.0
2017-Sep-14 21:30N 34°15' W 119°16'0 0.0
2017-Sep-14 21:00N 34°15' W 119°16'0 0.0
2017-Sep-14 20:29N 34°15' W 119°16'0 0.0
2017-Sep-14 20:00N 34°15' W 119°16'0 0.0
2017-Sep-14 19:30N 34°15' W 119°16'0 0.0
2017-Sep-14 18:55N 34°15' W 119°16'0 0.0
2017-Sep-14 18:30N 34°15' W 119°16'0 0.0
2017-Sep-14 17:59N 34°15' W 119°16'0 0.0
2017-Sep-14 17:30N 34°15' W 119°16'0 0.0
2017-Sep-14 17:00N 34°15' W 119°16'0 0.0
2017-Sep-14 16:28N 34°15' W 119°16'0 0.0
2017-Sep-14 15:54N 34°15' W 119°16'0 0.0
2017-Sep-14 15:29N 34°15' W 119°16'0 0.0
2017-Sep-14 15:00N 34°15' W 119°16'0 0.0
2017-Sep-14 14:27N 34°15' W 119°16'0 0.0
2017-Sep-14 13:51N 34°15' W 119°16'0 0.0
2017-Sep-14 13:30N 34°15' W 119°16'0 0.0
2017-Sep-14 13:00N 34°15' W 119°16'0 0.0
2017-Sep-14 12:30N 34°15' W 119°16'0 0.0
2017-Sep-14 12:00N 34°15' W 119°16'0 0.0
2017-Sep-14 11:30N 34°15' W 119°16'0 0.0
2017-Sep-14 10:58N 34°15' W 119°16'0 0.0
2017-Sep-14 10:29N 34°15' W 119°16'0 0.0
2017-Sep-14 10:00N 34°15' W 119°16'0 0.0
2017-Sep-14 09:30N 34°15' W 119°16'0 0.0
2017-Sep-14 09:00N 34°15' W 119°16'0 0.0
2017-Sep-14 08:30N 34°15' W 119°16'0 0.0
2017-Sep-14 08:00N 34°15' W 119°16'0 0.0
2017-Sep-14 07:30N 34°15' W 119°16'0 0.0
2017-Sep-14 07:00N 34°15' W 119°16'0 0.0
2017-Sep-14 06:28N 34°15' W 119°16'0 0.0
2017-Sep-14 06:00N 34°15' W 119°16'0 0.0
2017-Sep-14 05:30N 34°15' W 119°16'0 0.0
2017-Sep-14 04:50N 34°15' W 119°16'0 0.0
2017-Sep-14 04:29N 34°15' W 119°16'0 0.0
2017-Sep-14 04:00N 34°15' W 119°16'0 0.0
2017-Sep-14 03:04N 34°15' W 119°16'0 0.0
2017-Sep-14 03:00N 34°15' W 119°16'0 0.0
2017-Sep-14 02:30N 34°15' W 119°16'0 0.0
2017-Sep-14 02:00N 34°15' W 119°16'0 0.0
2017-Sep-14 01:30N 34°15' W 119°16'0 0.0
2017-Sep-14 00:58N 34°15' W 119°16'0 0.0
2017-Sep-14 00:30N 34°15' W 119°16'3 6.4
2017-Sep-14 00:00N 34°13' W 119°19'815.2
2017-Sep-13 23:29N 34°08' W 119°26'815.9
2017-Sep-13 23:00N 34°03' W 119°33'2 4.2
2017-Sep-13 22:30N 34°04' W 119°36'918.5
2017-Sep-13 21:59N 34°04' W 119°47'612.4
2017-Sep-13 21:30N 34°05' W 119°54'815.2
2017-Sep-13 20:58N 34°00' W 120°03'0 0.9
2017-Sep-13 20:30N 34°01' W 120°03'0 0.0
2017-Sep-13 20:00N 34°01' W 120°03'0 0.0
2017-Sep-13 19:30N 34°01' W 120°03'0 0.0
2017-Sep-13 19:00N 34°01' W 120°03'0 0.7
2017-Sep-13 18:26N 34°00' W 120°03'819.4
2017-Sep-13 18:00N 33°58' W 119°53'1121.2
2017-Sep-13 17:29N 33°58' W 119°40'817.7
2017-Sep-13 17:00N 34°03' W 119°31'2 3.5
2017-Sep-13 16:30N 34°03' W 119°33'714.0
2017-Sep-13 15:59N 34°07' W 119°26'918.2
2017-Sep-13 15:29N 34°13' W 119°18'2 4.4
2017-Sep-13 14:59N 34°15' W 119°16'0 0.0
2017-Sep-13 14:29N 34°15' W 119°16'0 0.5
2017-Sep-13 14:00N 34°14' W 119°16'0 0.4
2017-Sep-13 13:30N 34°15' W 119°16'0 0.0
2017-Sep-13 13:00N 34°15' W 119°16'0 0.0
2017-Sep-13 12:30N 34°15' W 119°16'0 0.0
2017-Sep-13 11:58N 34°15' W 119°16'0 0.0
2017-Sep-13 11:30N 34°15' W 119°16'0 0.0
2017-Sep-13 10:59N 34°15' W 119°16'0 0.0
2017-Sep-13 10:29N 34°15' W 119°16'0 0.0
2017-Sep-13 09:57N 34°15' W 119°16'0 0.0
2017-Sep-13 09:30N 34°15' W 119°16'0 0.0
2017-Sep-13 08:59N 34°15' W 119°16'0 0.0
2017-Sep-13 08:30N 34°15' W 119°16'0 0.0
2017-Sep-13 08:00N 34°15' W 119°16'0 0.0
2017-Sep-13 07:30N 34°15' W 119°16'0 0.0
2017-Sep-13 07:00N 34°15' W 119°16'0 0.0
2017-Sep-13 06:30N 34°15' W 119°16'0 0.0
2017-Sep-13 06:00N 34°15' W 119°16'0 0.0
2017-Sep-13 05:30N 34°15' W 119°16'0 0.0
2017-Sep-13 05:01N 34°15' W 119°16'0 0.0
2017-Sep-13 04:29N 34°15' W 119°16'0 0.0
2017-Sep-13 04:00N 34°15' W 119°16'0 0.0
2017-Sep-13 03:30N 34°15' W 119°16'0 0.0
2017-Sep-13 03:00N 34°15' W 119°16'0 0.0
2017-Sep-13 02:28N 34°15' W 119°16'0 0.0
2017-Sep-13 02:00N 34°15' W 119°16'0 0.0
2017-Sep-13 01:29N 34°15' W 119°16'0 0.0
2017-Sep-13 00:59N 34°15' W 119°16'1 1.5
2017-Sep-13 00:30N 34°14' W 119°17'1019.6
2017-Sep-13 00:00N 34°05' W 119°18'4 8.0
2017-Sep-12 23:31N 34°02' W 119°21'3 5.1
2017-Sep-12 22:59N 34°00' W 119°24'715.1
2017-Sep-12 22:30N 34°03' W 119°32'612.4
2017-Sep-12 22:00N 34°07' W 119°27'714.7
2017-Sep-12 21:30N 34°12' W 119°20'5 9.1
2017-Sep-12 21:00N 34°15' W 119°16'0 0.1
2017-Sep-12 20:30N 34°15' W 119°16'612.5
2017-Sep-12 20:00N 34°09' W 119°19'5 9.2
2017-Sep-12 19:30N 34°06' W 119°14'917.8
2017-Sep-12 19:01N 33°60' W 119°22'2 3.4
2017-Sep-12 18:30N 34°01' W 119°24'5 9.4
2017-Sep-12 18:00N 34°05' W 119°22'713.0
2017-Sep-12 17:28N 34°11' W 119°18'4 8.9
2017-Sep-12 17:00N 34°15' W 119°16'0 0.0
2017-Sep-12 16:30N 34°15' W 119°16'0 0.1
2017-Sep-12 15:59N 34°15' W 119°16'0 0.0
2017-Sep-12 15:30N 34°15' W 119°16'0 0.0
2017-Sep-12 15:00N 34°15' W 119°16'0 0.0
2017-Sep-12 14:29N 34°15' W 119°16'0 0.0
2017-Sep-12 14:00N 34°15' W 119°16'0 0.0
2017-Sep-12 13:30N 34°15' W 119°16'0 0.0
2017-Sep-12 12:58N 34°15' W 119°16'0 0.0
2017-Sep-12 12:30N 34°15' W 119°16'0 0.0
2017-Sep-12 12:00N 34°15' W 119°16'0 0.0
2017-Sep-12 11:30N 34°15' W 119°16'0 0.0
2017-Sep-12 11:00N 34°15' W 119°16'0 0.0
2017-Sep-12 10:30N 34°15' W 119°16'0 0.0
2017-Sep-12 09:59N 34°15' W 119°16'0 0.0
2017-Sep-12 09:30N 34°15' W 119°16'0 0.0
2017-Sep-12 09:00N 34°15' W 119°16'0 0.0
2017-Sep-12 08:30N 34°15' W 119°16'0 0.0
2017-Sep-12 08:00N 34°15' W 119°16'0 0.0
2017-Sep-12 07:30N 34°15' W 119°16'0 0.0
2017-Sep-12 06:59N 34°15' W 119°16'0 0.0
2017-Sep-12 06:30N 34°15' W 119°16'0 0.0
2017-Sep-12 05:57N 34°15' W 119°16'0 0.0
2017-Sep-12 05:29N 34°15' W 119°16'0 0.0
2017-Sep-12 05:00N 34°15' W 119°16'0 0.0
2017-Sep-12 04:26N 34°15' W 119°16'0 0.0
2017-Sep-12 03:59N 34°15' W 119°16'0 0.0
2017-Sep-12 03:27N 34°15' W 119°16'0 0.0
2017-Sep-12 02:59N 34°15' W 119°16'0 0.0
2017-Sep-12 02:27N 34°15' W 119°16'  
Track history (hours):
 
Tides and Currents Weather Stations Pressure Air Temp Water Temp Dewpoint Dewpoint Depression Visibility Wind Speed Wind Dir Waves Ship Positions

Island Explorer

Owner: Island Packers, Inc., Ventura, CA. More information available from US FCC via Universal Licensing System and Coast Guard Vessel Documentation Center.

Last reported at 2017-Sep-22 01:59 UTC. Time now 2017-Sep-23 16:32 UTC.
Position N 34°15' W 119°16'.

Length 22 m.

Type: Passenger vessel. MMSI: 367565750.

Date/timePositionNaut miles runAvg speedWind from/ knotsBaromVisibWave heightAir tempDewpointWater temp
2017-Sep-22 01:59N 34°15' W 119°16'0 0.0
2017-Sep-22 01:30N 34°15' W 119°16'0 0.0
2017-Sep-22 01:00N 34°15' W 119°16'0 0.0
2017-Sep-22 00:30N 34°15' W 119°16'1 1.3
2017-Sep-22 00:00N 34°15' W 119°17'916.9
2017-Sep-21 23:29N 34°08' W 119°24'917.7
2017-Sep-21 23:00N 34°03' W 119°33'1 1.4
2017-Sep-21 22:30N 34°03' W 119°33'0 0.1
2017-Sep-21 22:00N 34°03' W 119°33'0 0.9
2017-Sep-21 21:29N 34°03' W 119°34'713.5
2017-Sep-21 21:00N 34°01' W 119°41'0 0.0
2017-Sep-21 20:30N 34°01' W 119°41'0 0.0
2017-Sep-21 20:01N 34°01' W 119°41'0 0.0
2017-Sep-21 19:30N 34°01' W 119°41'1 2.7
2017-Sep-21 19:00N 34°02' W 119°40'510.8
2017-Sep-21 18:30N 34°03' W 119°33'0 0.3
2017-Sep-21 18:00N 34°03' W 119°33'1 2.6
2017-Sep-21 17:30N 34°04' W 119°32'713.8
2017-Sep-21 16:59N 34°09' W 119°26'714.0
2017-Sep-21 16:30N 34°13' W 119°19'3 6.6
2017-Sep-21 16:00N 34°15' W 119°16'0 0.0
2017-Sep-21 15:31N 34°15' W 119°16'0 0.1
2017-Sep-21 15:00N 34°15' W 119°16'0 0.0
2017-Sep-21 14:31N 34°15' W 119°16'0 0.0
2017-Sep-21 14:00N 34°15' W 119°16'0 0.0
2017-Sep-21 13:29N 34°15' W 119°16'0 0.0
2017-Sep-21 13:00N 34°15' W 119°16'0 0.0
2017-Sep-21 12:30N 34°15' W 119°16'0 0.0
2017-Sep-21 12:00N 34°15' W 119°16'0 0.0
2017-Sep-21 11:31N 34°15' W 119°16'0 0.0
2017-Sep-21 11:01N 34°15' W 119°16'0 0.0
2017-Sep-21 10:30N 34°15' W 119°16'0 0.0
2017-Sep-21 10:01N 34°15' W 119°16'0 0.0
2017-Sep-21 09:31N 34°15' W 119°16'0 0.0
2017-Sep-21 09:00N 34°15' W 119°16'0 0.0
2017-Sep-21 08:30N 34°15' W 119°16'0 0.0
2017-Sep-21 07:59N 34°15' W 119°16'0 0.0
2017-Sep-21 07:29N 34°15' W 119°16'0 0.0
2017-Sep-21 06:57N 34°15' W 119°16'0 0.0
2017-Sep-21 06:30N 34°15' W 119°16'0 0.0
2017-Sep-21 06:00N 34°15' W 119°16'0 0.0
2017-Sep-21 05:30N 34°15' W 119°16'0 0.0
2017-Sep-21 04:59N 34°15' W 119°16'0 0.0
2017-Sep-21 04:29N 34°15' W 119°16'0 0.0
2017-Sep-21 04:00N 34°15' W 119°16'0 0.0
2017-Sep-21 03:31N 34°15' W 119°16'0 0.0
2017-Sep-21 03:00N 34°15' W 119°16'0 0.0
2017-Sep-21 02:30N 34°15' W 119°16'0 0.0
2017-Sep-21 01:59N 34°15' W 119°16'0 0.0
2017-Sep-21 01:29N 34°15' W 119°16'0 0.0
2017-Sep-21 00:58N 34°15' W 119°16'0 0.0
2017-Sep-21 00:31N 34°15' W 119°16'0 0.0
2017-Sep-21 00:00N 34°15' W 119°16'0 0.0
2017-Sep-20 23:30N 34°15' W 119°16'0 0.4
2017-Sep-20 23:01N 34°14' W 119°16'0 0.4
2017-Sep-20 22:30N 34°15' W 119°16'0 0.0
2017-Sep-20 22:00N 34°15' W 119°16'0 0.0
2017-Sep-20 21:31N 34°15' W 119°16'0 0.0
2017-Sep-20 21:01N 34°15' W 119°16'0 0.0
2017-Sep-20 20:30N 34°15' W 119°16'0 0.0
2017-Sep-20 20:00N 34°15' W 119°16'0 0.0
2017-Sep-20 19:31N 34°15' W 119°16'0 0.0
2017-Sep-20 19:00N 34°15' W 119°16'0 0.0
2017-Sep-20 18:30N 34°15' W 119°16'0 0.0
2017-Sep-20 18:00N 34°15' W 119°16'0 0.0
2017-Sep-20 17:30N 34°15' W 119°16'0 0.0
2017-Sep-20 17:00N 34°15' W 119°16'0 0.0
2017-Sep-20 16:27N 34°15' W 119°16'0 0.0
2017-Sep-20 15:58N 34°15' W 119°16'0 0.0
2017-Sep-20 15:31N 34°15' W 119°16'0 0.0
2017-Sep-20 14:59N 34°15' W 119°16'0 0.0
2017-Sep-20 14:00N 34°15' W 119°16'0 0.0
2017-Sep-20 13:30N 34°15' W 119°16'0 0.0
2017-Sep-20 13:00N 34°15' W 119°16'0 0.0
2017-Sep-20 12:30N 34°15' W 119°16'0 0.0
2017-Sep-20 12:01N 34°15' W 119°16'0 0.0
2017-Sep-20 11:31N 34°15' W 119°16'0 0.0
2017-Sep-20 11:00N 34°15' W 119°16'0 0.0
2017-Sep-20 10:30N 34°15' W 119°16'0 0.0
2017-Sep-20 09:59N 34°15' W 119°16'0 0.0
2017-Sep-20 09:30N 34°15' W 119°16'0 0.0
2017-Sep-20 08:58N 34°15' W 119°16'0 0.0
2017-Sep-20 08:28N 34°15' W 119°16'0 0.0
2017-Sep-20 08:00N 34°15' W 119°16'0 0.0
2017-Sep-20 07:29N 34°15' W 119°16'0 0.0
2017-Sep-20 07:01N 34°15' W 119°16'0 0.0
2017-Sep-20 06:28N 34°15' W 119°16'0 0.0
2017-Sep-20 06:01N 34°15' W 119°16'0 0.0
2017-Sep-20 05:25N 34°15' W 119°16'0 0.0
2017-Sep-20 04:59N 34°15' W 119°16'0 0.0
2017-Sep-20 04:31N 34°15' W 119°16'0 0.0
2017-Sep-20 03:51N 34°15' W 119°16'0 0.0
2017-Sep-20 03:30N 34°15' W 119°16'0 0.0
2017-Sep-20 03:00N 34°15' W 119°16'0 0.0
2017-Sep-20 02:30N 34°15' W 119°16'0 0.0
2017-Sep-20 02:01N 34°15' W 119°16'0 0.0
2017-Sep-20 01:31N 34°15' W 119°16'0 0.0
2017-Sep-20 01:00N 34°15' W 119°16'0 0.0
2017-Sep-20 00:30N 34°15' W 119°16'0 0.0
2017-Sep-20 00:01N 34°15' W 119°16'0 0.0
2017-Sep-19 23:31N 34°15' W 119°16'0 0.0
2017-Sep-19 23:00N 34°15' W 119°16'0 0.0
2017-Sep-19 22:31N 34°15' W 119°16'0 0.0
2017-Sep-19 22:01N 34°15' W 119°16'0 0.0
2017-Sep-19 21:31N 34°15' W 119°16'0 0.0
2017-Sep-19 21:00N 34°15' W 119°16'0 0.0
2017-Sep-19 20:31N 34°15' W 119°16'0 0.0
2017-Sep-19 20:01N 34°15' W 119°16'0 0.0
2017-Sep-19 19:31N 34°15' W 119°16'0 0.0
2017-Sep-19 19:00N 34°15' W 119°16'0 0.0
2017-Sep-19 18:30N 34°15' W 119°16'0 0.0
2017-Sep-19 18:00N 34°15' W 119°16'0 0.0
2017-Sep-19 17:29N 34°15' W 119°16'0 0.0
2017-Sep-19 17:00N 34°15' W 119°16'0 0.0
2017-Sep-19 16:30N 34°15' W 119°16'0 0.0
2017-Sep-19 16:00N 34°15' W 119°16'0 0.0
2017-Sep-19 15:31N 34°15' W 119°16'0 0.0
2017-Sep-19 15:01N 34°15' W 119°16'0 0.0
2017-Sep-19 14:30N 34°15' W 119°16'0 0.0
2017-Sep-19 14:01N 34°15' W 119°16'0 0.0
2017-Sep-19 13:31N 34°15' W 119°16'0 0.0
2017-Sep-19 13:00N 34°15' W 119°16'0 0.0
2017-Sep-19 12:31N 34°15' W 119°16'0 0.0
2017-Sep-19 12:00N 34°15' W 119°16'0 0.0
2017-Sep-19 11:31N 34°15' W 119°16'0 0.0
2017-Sep-19 11:01N 34°15' W 119°16'0 0.0
2017-Sep-19 10:30N 34°15' W 119°16'0 0.0
2017-Sep-19 10:00N 34°15' W 119°16'0 0.0
2017-Sep-19 09:31N 34°15' W 119°16'0 0.0
2017-Sep-19 09:00N 34°15' W 119°16'0 0.0
2017-Sep-19 08:31N 34°15' W 119°16'0 0.0
2017-Sep-19 08:01N 34°15' W 119°16'0 0.0
2017-Sep-19 07:31N 34°15' W 119°16'0 0.0
2017-Sep-19 07:00N 34°15' W 119°16'0 0.0
2017-Sep-19 06:30N 34°15' W 119°16'0 0.0
2017-Sep-19 06:00N 34°15' W 119°16'0 0.0
2017-Sep-19 05:30N 34°15' W 119°16'0 0.0
2017-Sep-19 04:59N 34°15' W 119°16'0 0.0
2017-Sep-19 04:24N 34°15' W 119°16'0 0.0
2017-Sep-19 04:00N 34°15' W 119°16'0 0.0
2017-Sep-19 03:30N 34°15' W 119°16'0 0.0
2017-Sep-19 02:57N 34°15' W 119°16'0 0.0
2017-Sep-19 02:30N 34°15' W 119°16'0 0.0
2017-Sep-19 02:00N 34°15' W 119°16'0 0.0
2017-Sep-19 01:30N 34°15' W 119°16'0 0.0
2017-Sep-19 01:00N 34°15' W 119°16'0 0.0
2017-Sep-19 00:30N 34°15' W 119°16'0 0.0
2017-Sep-19 00:01N 34°15' W 119°16'0 0.0
2017-Sep-18 23:30N 34°15' W 119°16'0 0.0
2017-Sep-18 23:01N 34°15' W 119°16'0 0.0
2017-Sep-18 22:30N 34°15' W 119°16'0 0.0
2017-Sep-18 22:01N 34°15' W 119°16'0 0.0
2017-Sep-18 21:31N 34°15' W 119°16'0 0.0
2017-Sep-18 21:01N 34°15' W 119°16'0 0.0
2017-Sep-18 20:30N 34°15' W 119°16'0 0.0
2017-Sep-18 20:00N 34°15' W 119°16'0 0.0
2017-Sep-18 19:27N 34°15' W 119°16'0 0.0
2017-Sep-18 19:01N 34°15' W 119°16'0 0.0
2017-Sep-18 18:30N 34°15' W 119°16'0 0.0
2017-Sep-18 18:00N 34°15' W 119°16'0 0.0
2017-Sep-18 17:31N 34°15' W 119°16'0 0.0
2017-Sep-18 17:00N 34°15' W 119°16'0 0.0
2017-Sep-18 16:31N 34°15' W 119°16'0 0.0
2017-Sep-18 16:00N 34°15' W 119°16'0 0.0
2017-Sep-18 15:30N 34°15' W 119°16'0 0.0
2017-Sep-18 15:00N 34°15' W 119°16'0 0.0
2017-Sep-18 14:30N 34°15' W 119°16'0 0.0
2017-Sep-18 14:00N 34°15' W 119°16'0 0.0
2017-Sep-18 13:30N 34°15' W 119°16'0 0.0
2017-Sep-18 13:00N 34°15' W 119°16'0 0.0
2017-Sep-18 12:30N 34°15' W 119°16'0 0.0
2017-Sep-18 12:00N 34°15' W 119°16'0 0.0
2017-Sep-18 11:30N 34°15' W 119°16'0 0.0
2017-Sep-18 11:00N 34°15' W 119°16'0 0.0
2017-Sep-18 10:31N 34°15' W 119°16'0 0.0
2017-Sep-18 10:00N 34°15' W 119°16'0 0.0
2017-Sep-18 09:31N 34°15' W 119°16'0 0.0
2017-Sep-18 09:01N 34°15' W 119°16'0 0.0
2017-Sep-18 08:30N 34°15' W 119°16'0 0.0
2017-Sep-18 08:00N 34°15' W 119°16'0 0.0
2017-Sep-18 07:30N 34°15' W 119°16'0 0.0
2017-Sep-18 07:00N 34°15' W 119°16'0 0.0
2017-Sep-18 06:30N 34°15' W 119°16'0 0.0
2017-Sep-18 05:57N 34°15' W 119°16'0 0.0
2017-Sep-18 05:30N 34°15' W 119°16'0 0.0
2017-Sep-18 05:00N 34°15' W 119°16'0 0.0
2017-Sep-18 04:30N 34°15' W 119°16'0 0.0
2017-Sep-18 04:01N 34°15' W 119°16'0 0.0
2017-Sep-18 03:31N 34°15' W 119°16'0 0.0
2017-Sep-18 03:01N 34°15' W 119°16'0 0.0
2017-Sep-18 02:30N 34°15' W 119°16'0 0.0
2017-Sep-18 02:01N 34°15' W 119°16'0 0.0
2017-Sep-18 01:31N 34°15' W 119°16'0 0.6
2017-Sep-18 01:00N 34°15' W 119°16'816.9
2017-Sep-18 00:30N 34°10' W 119°24'918.6
2017-Sep-18 00:00N 34°05' W 119°34'713.8
2017-Sep-17 23:30N 34°01' W 119°41'3 6.1
2017-Sep-17 23:00N 34°03' W 119°44'713.3
2017-Sep-17 22:30N 34°04' W 119°52'612.1
2017-Sep-17 22:00N 34°02' W 119°58'4 7.9
2017-Sep-17 21:31N 34°00' W 120°03'0 0.1
2017-Sep-17 21:00N 34°01' W 120°03'1 1.5
2017-Sep-17 20:29N 33°60' W 120°02'0 0.5
2017-Sep-17 19:56N 34°00' W 120°02'0 0.8
2017-Sep-17 19:30N 34°01' W 120°02'1 1.3
2017-Sep-17 19:00N 34°00' W 120°02'0 0.5
2017-Sep-17 18:30N 34°00' W 120°02'0 0.6
2017-Sep-17 18:01N 34°00' W 120°03'2 4.7
2017-Sep-17 17:31N 34°02' W 120°00'1019.2
2017-Sep-17 17:01N 34°06' W 119°50'1019.5
2017-Sep-17 16:29N 34°09' W 119°38'5 9.3
2017-Sep-17 16:00N 34°09' W 119°33'918.3
2017-Sep-17 15:30N 34°12' W 119°23'612.2
2017-Sep-17 15:00N 34°15' W 119°16'0 0.1
2017-Sep-17 14:30N 34°15' W 119°16'0 0.1
2017-Sep-17 14:00N 34°15' W 119°16'0 0.1
2017-Sep-17 13:30N 34°15' W 119°16'0 0.0
2017-Sep-17 13:00N 34°15' W 119°16'0 0.0
2017-Sep-17 12:30N 34°15' W 119°16'0 0.0
2017-Sep-17 12:00N 34°15' W 119°16'0 0.0
2017-Sep-17 11:30N 34°15' W 119°16'0 0.0
2017-Sep-17 11:00N 34°15' W 119°16'0 0.0
2017-Sep-17 10:30N 34°15' W 119°16'0 0.0
2017-Sep-17 10:00N 34°15' W 119°16'0 0.0
2017-Sep-17 09:30N 34°15' W 119°16'0 0.0
2017-Sep-17 09:00N 34°15' W 119°16'0 0.0
2017-Sep-17 08:30N 34°15' W 119°16'0 0.0
2017-Sep-17 08:00N 34°15' W 119°16'0 0.0
2017-Sep-17 07:30N 34°15' W 119°16'0 0.0
2017-Sep-17 07:00N 34°15' W 119°16'0 0.0
2017-Sep-17 06:30N 34°15' W 119°16'0 0.0
2017-Sep-17 06:00N 34°15' W 119°16'0 0.0
2017-Sep-17 05:30N 34°15' W 119°16'0 0.0
2017-Sep-17 05:00N 34°15' W 119°16'0 0.0
2017-Sep-17 04:30N 34°15' W 119°16'0 0.0
2017-Sep-17 04:00N 34°15' W 119°16'1 1.1
2017-Sep-17 03:30N 34°15' W 119°16'1 1.4
2017-Sep-17 03:00N 34°15' W 119°16'1 1.4
2017-Sep-17 02:30N 34°15' W 119°16'1 1.1
2017-Sep-17 02:00N 34°15' W 119°16'0 0.1
2017-Sep-17 01:30N 34°15' W 119°16'0 0.0
2017-Sep-17 01:00N 34°15' W 119°16'0 0.1
2017-Sep-17 00:30N 34°15' W 119°16'0 0.1
2017-Sep-17 00:00N 34°15' W 119°16'0 0.0
2017-Sep-16 23:30N 34°15' W 119°16'2 3.1
2017-Sep-16 23:00N 34°14' W 119°18'918.3
2017-Sep-16 22:30N 34°11' W 119°28'612.4
2017-Sep-16 22:00N 34°09' W 119°35'2 3.1
2017-Sep-16 21:30N 34°10' W 119°35'1 1.3
2017-Sep-16 21:00N 34°09' W 119°35'714.7
2017-Sep-16 20:30N 34°07' W 119°27'610.9
2017-Sep-16 20:00N 34°02' W 119°30'918.2
2017-Sep-16 19:30N 33°54' W 119°25'612.4
2017-Sep-16 19:01N 33°56' W 119°18'714.5
2017-Sep-16 18:30N 34°03' W 119°22'4 8.8
2017-Sep-16 18:01N 34°04' W 119°17'714.3
2017-Sep-16 17:30N 34°11' W 119°20'5 7.3
2017-Sep-16 16:48N 34°15' W 119°16'0 0.5
2017-Sep-16 16:21N 34°14' W 119°16'0 0.6
2017-Sep-16 16:00N 34°15' W 119°16'0 0.0
2017-Sep-16 15:29N 34°15' W 119°16'0 0.0
2017-Sep-16 15:00N 34°15' W 119°16'0 0.0
2017-Sep-16 14:30N 34°15' W 119°16'0 0.0
2017-Sep-16 14:00N 34°15' W 119°16'0 0.0
2017-Sep-16 13:29N 34°15' W 119°16'0 0.0
2017-Sep-16 13:00N 34°15' W 119°16'0 0.0
2017-Sep-16 12:29N 34°15' W 119°16'0 0.0
2017-Sep-16 12:00N 34°15' W 119°16'0 0.0
2017-Sep-16 11:29N 34°15' W 119°16'0 0.0
2017-Sep-16 11:00N 34°15' W 119°16'0 0.0
2017-Sep-16 10:30N 34°15' W 119°16'0 0.0
2017-Sep-16 10:00N 34°15' W 119°16'0 0.0
2017-Sep-16 09:29N 34°15' W 119°16'0 0.0
2017-Sep-16 09:00N 34°15' W 119°16'0 0.0
2017-Sep-16 08:30N 34°15' W 119°16'0 0.0
2017-Sep-16 07:59N 34°15' W 119°16'0 0.0
2017-Sep-16 07:30N 34°15' W 119°16'0 0.0
2017-Sep-16 07:00N 34°15' W 119°16'0 0.0
2017-Sep-16 06:29N 34°15' W 119°16'0 0.0
2017-Sep-16 06:00N 34°15' W 119°16'0 0.0
2017-Sep-16 05:29N 34°15' W 119°16'0 0.0
2017-Sep-16 04:58N 34°15' W 119°16'0 0.0
2017-Sep-16 04:25N 34°15' W 119°16'0 0.0
2017-Sep-16 03:59N 34°15' W 119°16'0 0.0
2017-Sep-16 03:30N 34°15' W 119°16'0 0.0
2017-Sep-16 02:56N 34°15' W 119°16'0 0.0
2017-Sep-16 02:30N 34°15' W 119°16'0 0.0
2017-Sep-16 02:00N 34°15' W 119°16'0 0.0
2017-Sep-16 01:26N 34°15' W 119°16'0 0.0
2017-Sep-16 01:00N 34°15' W 119°16'0 0.7
2017-Sep-16 00:30N 34°15' W 119°16'918.2
2017-Sep-16 00:00N 34°10' W 119°25'918.7
2017-Sep-15 23:30N 34°03' W 119°33'0 0.1
2017-Sep-15 22:59N 34°03' W 119°33'817.7
2017-Sep-15 22:30N 34°04' W 119°43'713.5
2017-Sep-15 22:00N 34°04' W 119°52'918.1
2017-Sep-15 21:31N 34°02' W 120°02'1 1.1
2017-Sep-15 20:56N 34°01' W 120°02'1 1.7
2017-Sep-15 20:27N 34°00' W 120°02'1 2.3
2017-Sep-15 20:00N 33°59' W 120°01'1 1.4
2017-Sep-15 19:30N 33°60' W 120°02'1 1.2
2017-Sep-15 19:00N 34°00' W 120°02'0 0.9
2017-Sep-15 18:30N 34°00' W 120°03'510.0
2017-Sep-15 18:00N 33°59' W 119°57'1318.5
2017-Sep-15 17:19N 33°58' W 119°42'819.3
2017-Sep-15 16:55N 33°59' W 119°33'4 7.9
2017-Sep-15 16:28N 34°03' W 119°33'816.4
2017-Sep-15 15:59N 34°08' W 119°26'918.9
2017-Sep-15 15:30N 34°14' W 119°18'2 3.4
2017-Sep-15 14:59N 34°15' W 119°16'0 0.1
2017-Sep-15 14:30N 34°15' W 119°16'0 0.1
2017-Sep-15 14:00N 34°15' W 119°16'0 0.1
2017-Sep-15 13:30N 34°15' W 119°16'0 0.0
2017-Sep-15 13:00N 34°15' W 119°16'0 0.0
2017-Sep-15 12:29N 34°15' W 119°16'0 0.0
2017-Sep-15 12:00N 34°15' W 119°16'0 0.0
2017-Sep-15 11:30N 34°15' W 119°16'0 0.0
2017-Sep-15 11:00N 34°15' W 119°16'0 0.0
2017-Sep-15 10:30N 34°15' W 119°16'0 0.0
2017-Sep-15 10:00N 34°15' W 119°16'0 0.0
2017-Sep-15 09:30N 34°15' W 119°16'0 0.0
2017-Sep-15 09:00N 34°15' W 119°16'0 0.0
2017-Sep-15 08:29N 34°15' W 119°16'0 0.0
2017-Sep-15 08:00N 34°15' W 119°16'0 0.0
2017-Sep-15 07:30N 34°15' W 119°16'0 0.0
2017-Sep-15 07:00N 34°15' W 119°16'0 0.0
2017-Sep-15 06:30N 34°15' W 119°16'0 0.0
2017-Sep-15 06:00N 34°15' W 119°16'0 0.0
2017-Sep-15 05:30N 34°15' W 119°16'0 0.0
2017-Sep-15 05:00N 34°15' W 119°16'0 0.0
2017-Sep-15 04:30N 34°15' W 119°16'0 0.0
2017-Sep-15 04:00N 34°15' W 119°16'0 0.0
2017-Sep-15 03:30N 34°15' W 119°16'0 0.0
2017-Sep-15 03:00N 34°15' W 119°16'0 0.0
2017-Sep-15 02:30N 34°15' W 119°16'0 0.0
2017-Sep-15 02:01N 34°15' W 119°16'0 0.0
2017-Sep-15 01:29N 34°15' W 119°16'0 0.0
2017-Sep-15 01:00N 34°15' W 119°16'0 0.0
2017-Sep-15 00:30N 34°15' W 119°16'0 0.0
2017-Sep-14 23:59N 34°15' W 119°16'0 0.0
2017-Sep-14 23:28N 34°15' W 119°16'0 0.0
2017-Sep-14 23:01N 34°15' W 119°16'0 0.0
2017-Sep-14 22:18N 34°15' W 119°16'0 0.0
2017-Sep-14 21:57N 34°15' W 119°16'0 0.0
2017-Sep-14 21:30N 34°15' W 119°16'0 0.0
2017-Sep-14 21:00N 34°15' W 119°16'0 0.0
2017-Sep-14 20:29N 34°15' W 119°16'0 0.0
2017-Sep-14 20:00N 34°15' W 119°16'0 0.0
2017-Sep-14 19:30N 34°15' W 119°16'0 0.0
2017-Sep-14 18:55N 34°15' W 119°16'0 0.0
2017-Sep-14 18:30N 34°15' W 119°16'0 0.0
2017-Sep-14 17:59N 34°15' W 119°16'0 0.0
2017-Sep-14 17:30N 34°15' W 119°16'0 0.0
2017-Sep-14 17:00N 34°15' W 119°16'0 0.0
2017-Sep-14 16:28N 34°15' W 119°16'0 0.0
2017-Sep-14 15:54N 34°15' W 119°16'0 0.0
2017-Sep-14 15:29N 34°15' W 119°16'0 0.0
2017-Sep-14 15:00N 34°15' W 119°16'0 0.0
2017-Sep-14 14:27N 34°15' W 119°16'0 0.0
2017-Sep-14 13:51N 34°15' W 119°16'0 0.0
2017-Sep-14 13:30N 34°15' W 119°16'0 0.0
2017-Sep-14 13:00N 34°15' W 119°16'0 0.0
2017-Sep-14 12:30N 34°15' W 119°16'0 0.0
2017-Sep-14 12:00N 34°15' W 119°16'0 0.0
2017-Sep-14 11:30N 34°15' W 119°16'0 0.0
2017-Sep-14 10:58N 34°15' W 119°16'0 0.0
2017-Sep-14 10:29N 34°15' W 119°16'0 0.0
2017-Sep-14 10:00N 34°15' W 119°16'0 0.0
2017-Sep-14 09:30N 34°15' W 119°16'0 0.0
2017-Sep-14 09:00N 34°15' W 119°16'0 0.0
2017-Sep-14 08:30N 34°15' W 119°16'0 0.0
2017-Sep-14 08:00N 34°15' W 119°16'0 0.0
2017-Sep-14 07:30N 34°15' W 119°16'0 0.0
2017-Sep-14 07:00N 34°15' W 119°16'0 0.0
2017-Sep-14 06:28N 34°15' W 119°16'0 0.0
2017-Sep-14 06:00N 34°15' W 119°16'0 0.0
2017-Sep-14 05:30N 34°15' W 119°16'0 0.0
2017-Sep-14 04:50N 34°15' W 119°16'0 0.0
2017-Sep-14 04:29N 34°15' W 119°16'0 0.0
2017-Sep-14 04:00N 34°15' W 119°16'0 0.0
2017-Sep-14 03:04N 34°15' W 119°16'0 0.0
2017-Sep-14 03:00N 34°15' W 119°16'0 0.0
2017-Sep-14 02:30N 34°15' W 119°16'0 0.0
2017-Sep-14 02:00N 34°15' W 119°16'0 0.0
2017-Sep-14 01:30N 34°15' W 119°16'0 0.0
2017-Sep-14 00:58N 34°15' W 119°16'0 0.0
2017-Sep-14 00:30N 34°15' W 119°16'3 6.4
2017-Sep-14 00:00N 34°13' W 119°19'815.2
2017-Sep-13 23:29N 34°08' W 119°26'815.9
2017-Sep-13 23:00N 34°03' W 119°33'2 4.2
2017-Sep-13 22:30N 34°04' W 119°36'918.5
2017-Sep-13 21:59N 34°04' W 119°47'612.4
2017-Sep-13 21:30N 34°05' W 119°54'815.2
2017-Sep-13 20:58N 34°00' W 120°03'0 0.9
2017-Sep-13 20:30N 34°01' W 120°03'0 0.0
2017-Sep-13 20:00N 34°01' W 120°03'0 0.0
2017-Sep-13 19:30N 34°01' W 120°03'0 0.0
2017-Sep-13 19:00N 34°01' W 120°03'0 0.7
2017-Sep-13 18:26N 34°00' W 120°03'819.4
2017-Sep-13 18:00N 33°58' W 119°53'1121.2
2017-Sep-13 17:29N 33°58' W 119°40'817.7
2017-Sep-13 17:00N 34°03' W 119°31'2 3.5
2017-Sep-13 16:30N 34°03' W 119°33'714.0
2017-Sep-13 15:59N 34°07' W 119°26'918.2
2017-Sep-13 15:29N 34°13' W 119°18'2 4.4
2017-Sep-13 14:59N 34°15' W 119°16'0 0.0
2017-Sep-13 14:29N 34°15' W 119°16'0 0.5
2017-Sep-13 14:00N 34°14' W 119°16'0 0.4
2017-Sep-13 13:30N 34°15' W 119°16'0 0.0
2017-Sep-13 13:00N 34°15' W 119°16'0 0.0
2017-Sep-13 12:30N 34°15' W 119°16'0 0.0
2017-Sep-13 11:58N 34°15' W 119°16'0 0.0
2017-Sep-13 11:30N 34°15' W 119°16'0 0.0
2017-Sep-13 10:59N 34°15' W 119°16'0 0.0
2017-Sep-13 10:29N 34°15' W 119°16'0 0.0
2017-Sep-13 09:57N 34°15' W 119°16'0 0.0
2017-Sep-13 09:30N 34°15' W 119°16'0 0.0
2017-Sep-13 08:59N 34°15' W 119°16'0 0.0
2017-Sep-13 08:30N 34°15' W 119°16'0 0.0
2017-Sep-13 08:00N 34°15' W 119°16'0 0.0
2017-Sep-13 07:30N 34°15' W 119°16'0 0.0
2017-Sep-13 07:00N 34°15' W 119°16'0 0.0
2017-Sep-13 06:30N 34°15' W 119°16'0 0.0
2017-Sep-13 06:00N 34°15' W 119°16'0 0.0
2017-Sep-13 05:30N 34°15' W 119°16'0 0.0
2017-Sep-13 05:01N 34°15' W 119°16'0 0.0
2017-Sep-13 04:29N 34°15' W 119°16'0 0.0
2017-Sep-13 04:00N 34°15' W 119°16'0 0.0
2017-Sep-13 03:30N 34°15' W 119°16'0 0.0
2017-Sep-13 03:00N 34°15' W 119°16'0 0.0
2017-Sep-13 02:28N 34°15' W 119°16'0 0.0
2017-Sep-13 02:00N 34°15' W 119°16'0 0.0
2017-Sep-13 01:29N 34°15' W 119°16'0 0.0
2017-Sep-13 00:59N 34°15' W 119°16'1 1.5
2017-Sep-13 00:30N 34°14' W 119°17'1019.6
2017-Sep-13 00:00N 34°05' W 119°18'4 8.0
2017-Sep-12 23:31N 34°02' W 119°21'3 5.1
2017-Sep-12 22:59N 34°00' W 119°24'715.1
2017-Sep-12 22:30N 34°03' W 119°32'612.4
2017-Sep-12 22:00N 34°07' W 119°27'714.7
2017-Sep-12 21:30N 34°12' W 119°20'5 9.1
2017-Sep-12 21:00N 34°15' W 119°16'0 0.1
2017-Sep-12 20:30N 34°15' W 119°16'612.5
2017-Sep-12 20:00N 34°09' W 119°19'5 9.2
2017-Sep-12 19:30N 34°06' W 119°14'917.8
2017-Sep-12 19:01N 33°60' W 119°22'2 3.4
2017-Sep-12 18:30N 34°01' W 119°24'5 9.4
2017-Sep-12 18:00N 34°05' W 119°22'713.0
2017-Sep-12 17:28N 34°11' W 119°18'4 8.9
2017-Sep-12 17:00N 34°15' W 119°16'0 0.0
2017-Sep-12 16:30N 34°15' W 119°16'0 0.1
2017-Sep-12 15:59N 34°15' W 119°16'0 0.0
2017-Sep-12 15:30N 34°15' W 119°16'0 0.0
2017-Sep-12 15:00N 34°15' W 119°16'0 0.0
2017-Sep-12 14:29N 34°15' W 119°16'0 0.0
2017-Sep-12 14:00N 34°15' W 119°16'0 0.0
2017-Sep-12 13:30N 34°15' W 119°16'0 0.0
2017-Sep-12 12:58N 34°15' W 119°16'0 0.0
2017-Sep-12 12:30N 34°15' W 119°16'0 0.0
2017-Sep-12 12:00N 34°15' W 119°16'0 0.0
2017-Sep-12 11:30N 34°15' W 119°16'0 0.0
2017-Sep-12 11:00N 34°15' W 119°16'0 0.0
2017-Sep-12 10:30N 34°15' W 119°16'0 0.0
2017-Sep-12 09:59N 34°15' W 119°16'0 0.0
2017-Sep-12 09:30N 34°15' W 119°16'0 0.0
2017-Sep-12 09:00N 34°15' W 119°16'0 0.0
2017-Sep-12 08:30N 34°15' W 119°16'0 0.0
2017-Sep-12 08:00N 34°15' W 119°16'0 0.0
2017-Sep-12 07:30N 34°15' W 119°16'0 0.0
2017-Sep-12 06:59N 34°15' W 119°16'0 0.0
2017-Sep-12 06:30N 34°15' W 119°16'0 0.0
2017-Sep-12 05:57N 34°15' W 119°16'0 0.0
2017-Sep-12 05:29N 34°15' W 119°16'0 0.0
2017-Sep-12 05:00N 34°15' W 119°16'0 0.0
2017-Sep-12 04:26N 34°15' W 119°16'0 0.0
2017-Sep-12 03:59N 34°15' W 119°16'0 0.0
2017-Sep-12 03:27N 34°15' W 119°16'0 0.0
2017-Sep-12 02:59N 34°15' W 119°16'0 0.0
2017-Sep-12 02:27N 34°15' W 119°16'  

Dump ship's entire track history